SVCJ weather

San Carlos Airport
San Carlos, Cojedes, Venezuela

Public forecast

Using degrees Celsius for public forecast. Weather courtesy of forecast.io.

METAR (pilot weather report)

Report is more than 6 hours old.

Retrieved 2014/06/07 20:00 UTC (5 years ago):

SVCJ 072000Z 072000Z AUTO 09025KT CAVOK 32/21 Q1007

TAF (pilot weather forecast)

Forecast is more than 12 hours old.

Retrieved 2019/05/20 00:00 UTC (4 months ago):

TAF SVCJ 202200Z 2100/2200 09008KT 9000 SCT016 BKN020 TX35/2115Z TN26/2103Z BECMG 2100/2104 09010KT 9999 SCT016 BKN020